createdAt,value
2023-01-13T00:01:08.545Z,9.82
2023-01-13T00:03:38.342Z,9.80
2023-01-13T00:06:07.088Z,9.82
2023-01-13T00:08:35.889Z,9.80
2023-01-13T00:11:03.546Z,9.79
2023-01-13T00:13:33.496Z,9.78
2023-01-13T00:16:03.879Z,9.78
2023-01-13T00:18:31.968Z,9.78
2023-01-13T00:21:02.386Z,9.79
2023-01-13T00:23:32.414Z,9.79
2023-01-13T00:26:05.839Z,9.76
2023-01-13T00:28:33.910Z,9.79
2023-01-13T00:31:05.981Z,9.81
2023-01-13T00:33:33.966Z,9.77
2023-01-13T00:36:04.222Z,9.77
2023-01-13T00:38:33.412Z,9.82
2023-01-13T00:41:02.587Z,9.84
2023-01-13T00:43:31.205Z,9.83
2023-01-13T00:45:59.946Z,9.82
2023-01-13T00:48:28.935Z,9.80
2023-01-13T00:50:57.957Z,9.79
2023-01-13T00:53:28.382Z,9.73
2023-01-13T00:56:06.882Z,9.69
2023-01-13T00:58:35.923Z,9.70
2023-01-13T01:01:04.941Z,9.67
2023-01-13T01:03:32.963Z,9.62
2023-01-13T01:06:06.314Z,9.60
2023-01-13T01:08:35.764Z,9.54
2023-01-13T01:11:08.355Z,9.50
2023-01-13T01:13:36.402Z,9.47
2023-01-13T01:16:06.721Z,9.41
2023-01-13T01:18:34.875Z,9.32
2023-01-13T01:21:02.566Z,9.23
2023-01-13T01:23:30.362Z,9.14
2023-01-13T01:26:02.728Z,9.03
2023-01-13T01:28:31.592Z,8.89
2023-01-13T01:30:59.747Z,8.76
2023-01-13T01:33:27.767Z,8.69
2023-01-13T01:35:55.808Z,8.67
2023-01-13T01:38:23.719Z,8.65
2023-01-13T01:40:51.450Z,8.62
2023-01-13T01:43:39.886Z,8.62
2023-01-13T01:46:08.018Z,8.57
2023-01-13T01:48:38.637Z,8.55
2023-01-13T01:51:09.577Z,8.51
2023-01-13T01:53:37.711Z,8.45
2023-01-13T01:56:06.159Z,8.39
2023-01-13T01:58:41.706Z,8.33
2023-01-13T02:01:09.896Z,8.30
2023-01-13T02:03:40.846Z,8.29
2023-01-13T02:06:09.590Z,8.32
2023-01-13T02:08:39.613Z,8.38
2023-01-13T02:11:28.090Z,8.39
2023-01-13T02:13:56.291Z,8.46
2023-01-13T02:16:25.335Z,8.48
2023-01-13T02:19:01.600Z,8.51
2023-01-13T02:22:04.331Z,8.57
2023-01-13T02:25:04.650Z,8.68
2023-01-13T02:28:00.308Z,8.76
2023-01-13T02:30:59.569Z,8.84
2023-01-13T02:33:37.532Z,8.90
2023-01-13T02:36:12.506Z,8.96
2023-01-13T02:38:48.075Z,9.00
2023-01-13T02:41:40.563Z,8.94
2023-01-13T02:44:10.923Z,8.85
2023-01-13T02:46:51.237Z,8.80
2023-01-13T02:49:26.045Z,8.75
2023-01-13T02:51:59.997Z,8.71
2023-01-13T02:54:30.521Z,8.65
2023-01-13T02:57:00.370Z,8.61
2023-01-13T02:59:31.327Z,8.63
2023-01-13T03:02:03.353Z,8.66
2023-01-13T03:04:53.559Z,8.65
2023-01-13T03:07:53.274Z,8.60
2023-01-13T03:10:38.780Z,8.48
2023-01-13T03:13:18.437Z,8.38
2023-01-13T03:15:55.499Z,8.29
2023-01-13T03:18:37.664Z,8.15
2023-01-13T03:21:09.211Z,8.06
2023-01-13T03:23:46.598Z,7.93
2023-01-13T03:26:21.848Z,7.88
2023-01-13T03:28:55.179Z,7.76
2023-01-13T03:31:28.863Z,7.69
2023-01-13T03:34:02.138Z,7.67
2023-01-13T03:36:33.441Z,7.67
2023-01-13T03:39:07.517Z,7.69
2023-01-13T03:41:39.818Z,7.72
2023-01-13T03:44:24.627Z,7.70
2023-01-13T03:47:02.588Z,7.72
2023-01-13T03:49:39.666Z,7.72
2023-01-13T03:52:13.635Z,7.77
2023-01-13T03:54:48.713Z,7.81
2023-01-13T03:57:19.033Z,7.87
2023-01-13T03:59:51.506Z,7.89
2023-01-13T04:02:25.443Z,7.94
2023-01-13T04:04:59.159Z,8.00
2023-01-13T04:07:38.846Z,8.07
2023-01-13T04:10:09.607Z,8.09
2023-01-13T04:12:58.834Z,8.09
2023-01-13T04:15:28.936Z,8.00
2023-01-13T04:18:03.167Z,8.00
2023-01-13T04:20:32.323Z,8.01
2023-01-13T04:23:00.241Z,8.03
2023-01-13T04:25:27.912Z,8.07
2023-01-13T04:27:55.630Z,8.11
2023-01-13T04:30:23.308Z,8.15
2023-01-13T04:32:51.053Z,8.19
2023-01-13T04:35:18.788Z,8.24
2023-01-13T04:37:48.387Z,8.25
2023-01-13T04:40:16.363Z,8.20
2023-01-13T04:42:45.553Z,8.11
2023-01-13T04:45:13.784Z,8.00
2023-01-13T04:47:42.351Z,7.91
2023-01-13T04:50:12.137Z,7.78
2023-01-13T04:52:40.169Z,7.67
2023-01-13T04:55:10.596Z,7.55
2023-01-13T04:57:38.621Z,7.44
2023-01-13T05:00:08.542Z,7.33
2023-01-13T05:02:36.364Z,7.23
2023-01-13T05:05:04.486Z,7.15
2023-01-13T05:07:32.357Z,7.07
2023-01-13T05:10:00.735Z,7.01
2023-01-13T05:12:47.078Z,6.95
2023-01-13T05:15:33.017Z,6.88
2023-01-13T05:18:01.495Z,6.83
2023-01-13T05:20:29.373Z,6.79
2023-01-13T05:23:14.753Z,6.76
2023-01-13T05:25:44.534Z,6.72
2023-01-13T05:28:13.809Z,6.67
2023-01-13T05:30:44.292Z,6.66
2023-01-13T05:33:13.058Z,6.62
2023-01-13T05:35:42.409Z,6.61
2023-01-13T05:38:10.401Z,6.58
2023-01-13T05:40:59.401Z,6.58
2023-01-13T05:43:29.173Z,6.52
2023-01-13T05:45:59.784Z,6.53
2023-01-13T05:48:29.702Z,6.56
2023-01-13T05:50:57.923Z,6.56
2023-01-13T05:53:25.805Z,6.57
2023-01-13T05:55:54.088Z,6.57
2023-01-13T05:58:23.913Z,6.58
2023-01-13T06:00:53.330Z,6.65
2023-01-13T06:03:21.369Z,6.72
2023-01-13T06:05:50.341Z,6.81
2023-01-13T06:08:18.921Z,6.87
2023-01-13T06:10:46.909Z,6.94
2023-01-13T06:13:14.703Z,6.99
2023-01-13T06:15:42.602Z,7.04
2023-01-13T06:18:11.837Z,7.04
2023-01-13T06:20:39.743Z,7.04
2023-01-13T06:23:09.724Z,6.99
2023-01-13T06:25:43.227Z,6.93
2023-01-13T06:28:11.701Z,6.91
2023-01-13T06:30:43.597Z,6.89
2023-01-13T06:33:16.014Z,6.90
2023-01-13T06:35:47.614Z,6.91
2023-01-13T06:38:18.736Z,6.90
2023-01-13T06:40:46.781Z,6.86
2023-01-13T06:43:17.048Z,6.83
2023-01-13T06:45:48.791Z,6.78
2023-01-13T06:48:18.603Z,6.79
2023-01-13T06:50:46.585Z,6.82
2023-01-13T06:53:14.301Z,6.83
2023-01-13T06:55:42.358Z,6.91
2023-01-13T06:58:10.330Z,7.01
2023-01-13T07:00:38.176Z,7.14
2023-01-13T07:03:07.464Z,7.24
2023-01-13T07:05:36.540Z,7.36
2023-01-13T07:08:04.699Z,7.44
2023-01-13T07:10:32.689Z,7.50
2023-01-13T07:13:19.361Z,7.60
2023-01-13T07:15:58.139Z,7.64
2023-01-13T07:18:27.397Z,7.70
2023-01-13T07:20:59.112Z,7.72
2023-01-13T07:23:29.084Z,7.67
2023-01-13T07:25:57.251Z,7.63
2023-01-13T07:28:25.147Z,7.54
2023-01-13T07:30:53.286Z,7.52
2023-01-13T07:33:21.658Z,7.54
2023-01-13T07:35:50.111Z,7.57
2023-01-13T07:38:19.152Z,7.62
2023-01-13T07:40:46.885Z,7.66
2023-01-13T07:43:32.033Z,7.70
2023-01-13T07:46:01.097Z,7.74
2023-01-13T07:48:29.335Z,7.74
2023-01-13T07:50:57.143Z,7.69
2023-01-13T07:53:26.198Z,7.64
2023-01-13T07:55:56.716Z,7.59
2023-01-13T07:58:24.848Z,7.61
2023-01-13T08:00:53.281Z,7.60
2023-01-13T08:03:21.325Z,7.56
2023-01-13T08:05:49.366Z,7.53
2023-01-13T08:08:17.148Z,7.46
2023-01-13T08:10:46.463Z,7.45
2023-01-13T08:13:19.990Z,7.46
2023-01-13T08:15:49.708Z,7.47
2023-01-13T08:18:20.784Z,7.50
2023-01-13T08:20:49.544Z,7.50
2023-01-13T08:23:17.410Z,7.51
2023-01-13T08:25:46.617Z,7.58
2023-01-13T08:28:15.843Z,7.59
2023-01-13T08:30:43.859Z,7.70
2023-01-13T08:33:13.580Z,7.76
2023-01-13T08:35:42.603Z,7.80
2023-01-13T08:38:10.719Z,7.85
2023-01-13T08:40:40.861Z,7.96
2023-01-13T08:43:10.087Z,8.08
2023-01-13T08:45:38.042Z,8.11
2023-01-13T08:48:06.238Z,8.19
2023-01-13T08:50:33.961Z,8.27
2023-01-13T08:53:01.908Z,8.35
2023-01-13T08:55:29.826Z,8.46
2023-01-13T08:58:14.100Z,8.50
2023-01-13T09:00:44.813Z,8.47
2023-01-13T09:03:12.864Z,8.55
2023-01-13T09:05:40.607Z,8.60
2023-01-13T09:08:08.370Z,8.65
2023-01-13T09:10:36.831Z,8.75
2023-01-13T09:13:12.845Z,8.70
2023-01-13T09:15:42.308Z,8.78
2023-01-13T09:18:11.795Z,8.82
2023-01-13T09:20:40.160Z,8.81
2023-01-13T09:23:10.658Z,8.73
2023-01-13T09:25:39.079Z,8.83
2023-01-13T09:28:08.135Z,8.89
2023-01-13T09:30:37.136Z,9.06
2023-01-13T09:33:22.514Z,9.06
2023-01-13T09:35:51.630Z,9.10
2023-01-13T09:38:19.445Z,9.07
2023-01-13T09:40:49.868Z,8.99
2023-01-13T09:43:39.766Z,8.95
2023-01-13T09:46:31.328Z,9.03
2023-01-13T09:49:00.242Z,9.11
2023-01-13T09:51:35.176Z,9.17
2023-01-13T09:54:09.946Z,9.15
2023-01-13T09:56:37.706Z,9.11
2023-01-13T09:59:06.056Z,9.06
2023-01-13T10:01:41.628Z,9.12
2023-01-13T10:04:13.023Z,9.11
2023-01-13T10:06:45.294Z,9.11
2023-01-13T10:09:19.081Z,9.08
2023-01-13T10:12:07.063Z,9.03
2023-01-13T10:14:40.817Z,9.05
2023-01-13T10:17:17.849Z,9.17
2023-01-13T10:19:51.765Z,9.23
2023-01-13T10:22:41.558Z,9.28
2023-01-13T10:25:21.938Z,9.31
2023-01-13T10:27:51.678Z,9.32
2023-01-13T10:30:23.681Z,9.39
2023-01-13T10:32:55.808Z,9.48
2023-01-13T10:35:52.806Z,9.54
2023-01-13T10:38:24.935Z,9.62
2023-01-13T10:40:55.670Z,9.69
2023-01-13T10:43:23.973Z,9.67
2023-01-13T10:45:57.892Z,9.70
2023-01-13T10:48:34.168Z,9.74
2023-01-13T10:51:12.143Z,9.78
2023-01-13T10:53:51.749Z,9.82
2023-01-13T10:56:21.255Z,9.79
2023-01-13T10:58:49.001Z,9.88
2023-01-13T11:01:26.726Z,9.82
2023-01-13T11:03:55.615Z,9.80
2023-01-13T11:06:26.638Z,9.71
2023-01-13T11:08:58.306Z,9.65
2023-01-13T11:11:43.065Z,9.62
2023-01-13T11:14:39.720Z,9.50
2023-01-13T11:17:17.098Z,9.48
2023-01-13T11:19:51.292Z,9.56
2023-01-13T11:22:26.380Z,9.55
2023-01-13T11:25:01.461Z,9.58
2023-01-13T11:27:40.908Z,9.64
2023-01-13T11:30:18.918Z,9.82
2023-01-13T11:33:00.659Z,9.98
2023-01-13T11:35:30.749Z,9.96
2023-01-13T11:38:04.106Z,9.94
2023-01-13T11:40:37.501Z,9.97
2023-01-13T11:43:13.383Z,10.05
2023-01-13T11:45:45.850Z,10.18
2023-01-13T11:48:16.349Z,10.25
2023-01-13T11:50:51.439Z,10.25
2023-01-13T11:53:34.920Z,10.21
2023-01-13T11:56:17.033Z,10.29
2023-01-13T11:59:18.460Z,10.56
2023-01-13T12:02:01.036Z,10.50
2023-01-13T12:04:36.153Z,10.29
2023-01-13T12:07:15.050Z,10.32
2023-01-13T12:09:56.343Z,10.26
2023-01-13T12:12:39.840Z,10.06
2023-01-13T12:15:36.832Z,9.99
2023-01-13T12:18:21.538Z,9.93
2023-01-13T12:21:03.823Z,9.80
2023-01-13T12:23:36.050Z,9.71
2023-01-13T12:26:09.181Z,9.69
2023-01-13T12:28:45.825Z,9.60
2023-01-13T12:31:15.207Z,9.59
2023-01-13T12:33:55.650Z,9.49
2023-01-13T12:36:30.419Z,9.46
2023-01-13T12:39:06.476Z,9.47
2023-01-13T12:42:03.379Z,9.42
2023-01-13T12:44:31.635Z,9.39
2023-01-13T12:47:01.032Z,9.43
2023-01-13T12:49:31.218Z,9.41
2023-01-13T12:52:12.619Z,9.28
2023-01-13T12:55:15.670Z,9.17
2023-01-13T12:58:15.215Z,9.10
2023-01-13T13:01:00.966Z,9.12
2023-01-13T13:03:36.567Z,9.09
2023-01-13T13:06:20.510Z,9.23
2023-01-13T13:09:03.952Z,9.27
2023-01-13T13:12:03.465Z,9.35
2023-01-13T13:15:06.738Z,9.46
2023-01-13T13:18:01.012Z,9.42
2023-01-13T13:20:54.947Z,9.50
2023-01-13T13:23:29.122Z,9.52
2023-01-13T13:26:04.657Z,9.69
2023-01-13T13:28:38.024Z,9.82
2023-01-13T13:31:26.376Z,9.81
2023-01-13T13:34:13.995Z,9.98
2023-01-13T13:36:58.141Z,9.80
2023-01-13T13:39:47.249Z,9.77
2023-01-13T13:42:38.051Z,9.76
2023-01-13T13:45:33.391Z,9.70
2023-01-13T13:48:03.166Z,9.67
2023-01-13T13:50:35.105Z,9.75
2023-01-13T13:53:07.116Z,9.64
2023-01-13T13:55:35.505Z,9.57
2023-01-13T13:58:03.838Z,9.58
2023-01-13T14:00:35.472Z,9.61
2023-01-13T14:03:05.125Z,9.54
2023-01-13T14:05:35.986Z,9.47
2023-01-13T14:08:14.191Z,9.38
2023-01-13T14:10:44.841Z,9.34
2023-01-13T14:13:19.736Z,9.33
2023-01-13T14:15:48.140Z,9.40
2023-01-13T14:18:18.817Z,9.44
2023-01-13T14:20:55.720Z,9.31
2023-01-13T14:23:27.489Z,9.29
2023-01-13T14:25:55.956Z,9.20
2023-01-13T14:28:27.751Z,9.10
2023-01-13T14:30:57.571Z,8.97
2023-01-13T14:33:34.277Z,8.82
2023-01-13T14:36:12.384Z,8.69
2023-01-13T14:38:40.161Z,8.52
2023-01-13T14:41:20.380Z,8.39
2023-01-13T14:43:50.720Z,8.39
2023-01-13T14:46:21.077Z,8.28
2023-01-13T14:48:50.711Z,8.22
2023-01-13T14:51:29.117Z,8.11
2023-01-13T14:53:57.948Z,8.02
2023-01-13T14:56:47.331Z,8.02
2023-01-13T14:59:57.360Z,8.05
2023-01-13T15:02:43.709Z,7.99
2023-01-13T15:05:33.947Z,7.95
2023-01-13T15:08:09.168Z,7.91
2023-01-13T15:10:45.819Z,7.88
2023-01-13T15:13:23.602Z,7.94
2023-01-13T15:15:56.795Z,7.93
2023-01-13T15:18:24.759Z,7.92
2023-01-13T15:20:52.475Z,7.91
2023-01-13T15:23:22.136Z,7.84
2023-01-13T15:25:50.322Z,7.74
2023-01-13T15:28:20.572Z,7.63
2023-01-13T15:30:49.232Z,7.53
2023-01-13T15:33:17.554Z,7.44
2023-01-13T15:35:47.463Z,7.32
2023-01-13T15:38:18.585Z,7.26
2023-01-13T15:40:48.490Z,7.24
2023-01-13T15:43:35.251Z,7.23
2023-01-13T15:46:22.842Z,7.26
2023-01-13T15:48:54.752Z,7.26
2023-01-13T15:51:22.889Z,7.29
2023-01-13T15:53:50.658Z,7.33
2023-01-13T15:56:24.518Z,7.32
2023-01-13T15:58:52.265Z,7.33
2023-01-13T16:01:20.271Z,7.28
2023-01-13T16:03:48.163Z,7.28
2023-01-13T16:06:20.076Z,7.26
2023-01-13T16:08:47.836Z,7.21
2023-01-13T16:11:15.577Z,7.12
2023-01-13T16:13:44.625Z,7.10
2023-01-13T16:16:19.046Z,7.07
2023-01-13T16:18:46.944Z,7.03
2023-01-13T16:21:15.303Z,7.03
2023-01-13T16:23:43.281Z,7.00
2023-01-13T16:26:18.927Z,7.00
2023-01-13T16:28:48.420Z,7.01
2023-01-13T16:31:19.633Z,7.04
2023-01-13T16:33:47.440Z,7.07
2023-01-13T16:36:16.310Z,7.12
2023-01-13T16:38:44.842Z,7.17
2023-01-13T16:41:12.561Z,7.20
2023-01-13T16:43:40.322Z,7.26
2023-01-13T16:46:22.855Z,7.34
2023-01-13T16:48:52.831Z,7.37
2023-01-13T16:51:21.352Z,7.40
2023-01-13T16:53:49.555Z,7.41
2023-01-13T16:56:22.081Z,7.43
2023-01-13T16:58:49.891Z,7.46
2023-01-13T17:01:22.566Z,7.51
2023-01-13T17:03:51.477Z,7.51
2023-01-13T17:06:22.422Z,7.48
2023-01-13T17:08:50.193Z,7.46
2023-01-13T17:11:17.894Z,7.45
2023-01-13T17:13:45.637Z,7.40
2023-01-13T17:16:24.399Z,7.40
2023-01-13T17:18:52.137Z,7.41
2023-01-13T17:21:19.928Z,7.41
2023-01-13T17:23:47.633Z,7.44
2023-01-13T17:26:28.963Z,7.41
2023-01-13T17:28:56.783Z,7.39
2023-01-13T17:31:25.973Z,7.40
2023-01-13T17:33:53.690Z,7.40
2023-01-13T17:36:21.422Z,7.43
2023-01-13T17:38:49.242Z,7.41
2023-01-13T17:41:16.947Z,7.43
2023-01-13T17:43:44.621Z,7.39
2023-01-13T17:46:13.508Z,7.32
2023-01-13T17:48:42.591Z,7.35
2023-01-13T17:51:13.113Z,7.30
2023-01-13T17:53:41.280Z,7.30
2023-01-13T17:56:10.361Z,7.26
2023-01-13T17:58:38.621Z,7.25
2023-01-13T18:01:09.232Z,7.25
2023-01-13T18:03:37.993Z,7.23
2023-01-13T18:06:09.996Z,7.18
2023-01-13T18:08:37.682Z,7.18
2023-01-13T18:11:05.626Z,7.20
2023-01-13T18:13:34.697Z,7.19
2023-01-13T18:16:04.866Z,7.19
2023-01-13T18:18:34.292Z,7.22
2023-01-13T18:21:20.197Z,7.24
2023-01-13T18:24:12.244Z,7.25
2023-01-13T18:26:57.263Z,7.28
2023-01-13T18:29:25.016Z,7.31
2023-01-13T18:31:53.200Z,7.33
2023-01-13T18:34:21.470Z,7.36
2023-01-13T18:36:49.234Z,7.37
2023-01-13T18:39:18.943Z,7.41
2023-01-13T18:42:04.005Z,7.45
2023-01-13T18:44:31.711Z,7.49
2023-01-13T18:46:59.397Z,7.49
2023-01-13T18:49:27.158Z,7.50
2023-01-13T18:51:54.917Z,7.52
2023-01-13T18:54:23.987Z,7.52
2023-01-13T18:56:51.712Z,7.57
2023-01-13T18:59:19.569Z,7.60
2023-01-13T19:01:47.283Z,7.63
2023-01-13T19:04:18.010Z,7.61
2023-01-13T19:06:51.362Z,7.67
2023-01-13T19:09:20.515Z,7.68
2023-01-13T19:11:50.471Z,7.73
2023-01-13T19:14:34.079Z,7.74
2023-01-13T19:17:02.878Z,7.75
2023-01-13T19:19:31.262Z,7.77
2023-01-13T19:21:59.167Z,7.79
2023-01-13T19:24:26.965Z,7.80
2023-01-13T19:26:56.007Z,7.84
2023-01-13T19:29:23.845Z,7.84
2023-01-13T19:31:51.556Z,7.85
2023-01-13T19:34:19.343Z,7.85
2023-01-13T19:36:47.086Z,7.80
2023-01-13T19:39:14.963Z,7.79
2023-01-13T19:42:00.355Z,7.77
2023-01-13T19:44:43.304Z,7.68
2023-01-13T19:47:11.005Z,7.64
2023-01-13T19:49:38.827Z,7.55
2023-01-13T19:52:06.537Z,7.47
2023-01-13T19:54:34.232Z,7.37
2023-01-13T19:57:02.095Z,7.32
2023-01-13T19:59:32.499Z,7.29
2023-01-13T20:02:01.713Z,7.29
2023-01-13T20:04:37.443Z,7.30
2023-01-13T20:07:05.822Z,7.32
2023-01-13T20:09:34.464Z,7.34
2023-01-13T20:12:03.701Z,7.36
2023-01-13T20:14:32.812Z,7.38
2023-01-13T20:17:00.574Z,7.34
2023-01-13T20:19:28.317Z,7.24
2023-01-13T20:21:56.085Z,7.20
2023-01-13T20:24:25.980Z,7.18
2023-01-13T20:26:55.194Z,7.21
2023-01-13T20:29:23.470Z,7.24
2023-01-13T20:31:52.503Z,7.28
2023-01-13T20:34:20.322Z,7.34
2023-01-13T20:36:49.501Z,7.40
2023-01-13T20:39:19.077Z,7.44
2023-01-13T20:42:04.997Z,7.52
2023-01-13T20:44:32.930Z,7.56
2023-01-13T20:47:02.862Z,7.57
2023-01-13T20:49:31.196Z,7.62
2023-01-13T20:51:59.104Z,7.62
2023-01-13T20:54:26.959Z,7.62
2023-01-13T20:56:55.103Z,7.59
2023-01-13T20:59:23.776Z,7.59
2023-01-13T21:01:51.520Z,7.57
2023-01-13T21:04:20.696Z,7.49
2023-01-13T21:06:49.808Z,7.45
2023-01-13T21:09:17.606Z,7.41
2023-01-13T21:12:02.965Z,7.43
2023-01-13T21:14:48.446Z,7.39
2023-01-13T21:17:33.465Z,7.36
2023-01-13T21:20:04.417Z,7.35
2023-01-13T21:22:32.399Z,7.34
2023-01-13T21:25:00.154Z,7.36
2023-01-13T21:27:27.932Z,7.35
2023-01-13T21:29:55.650Z,7.34
2023-01-13T21:32:23.460Z,7.35
2023-01-13T21:34:51.300Z,7.33
2023-01-13T21:37:20.587Z,7.31
2023-01-13T21:39:48.390Z,7.33
2023-01-13T21:42:34.247Z,7.36
2023-01-13T21:45:19.631Z,7.34
2023-01-13T21:47:50.400Z,7.38
2023-01-13T21:50:19.866Z,7.43
2023-01-13T21:52:52.325Z,7.45
2023-01-13T21:55:25.259Z,7.37
2023-01-13T21:57:55.803Z,7.45
2023-01-13T22:00:26.803Z,7.43
2023-01-13T22:02:55.046Z,7.41
2023-01-13T22:05:25.359Z,7.44
2023-01-13T22:07:54.601Z,7.45
2023-01-13T22:10:24.909Z,7.43
2023-01-13T22:12:54.176Z,7.39
2023-01-13T22:15:25.275Z,7.40
2023-01-13T22:17:54.084Z,7.39
2023-01-13T22:20:22.301Z,7.37
2023-01-13T22:22:50.348Z,7.32
2023-01-13T22:25:20.259Z,7.35
2023-01-13T22:27:49.160Z,7.32
2023-01-13T22:30:18.780Z,7.36
2023-01-13T22:32:47.368Z,7.39
2023-01-13T22:35:16.662Z,7.39
2023-01-13T22:37:44.366Z,7.40
2023-01-13T22:40:13.228Z,7.39
2023-01-13T22:42:43.597Z,7.38
2023-01-13T22:45:13.983Z,7.40
2023-01-13T22:47:42.274Z,7.44
2023-01-13T22:50:12.465Z,7.47
2023-01-13T22:52:40.284Z,7.45
2023-01-13T22:55:09.178Z,7.43
2023-01-13T22:57:47.286Z,7.46
2023-01-13T23:00:19.464Z,7.44
2023-01-13T23:02:47.238Z,7.45
2023-01-13T23:05:15.243Z,7.44
2023-01-13T23:07:42.919Z,7.45
2023-01-13T23:10:11.768Z,7.43
2023-01-13T23:12:39.983Z,7.38
2023-01-13T23:15:08.396Z,7.31
2023-01-13T23:17:37.856Z,7.20
2023-01-13T23:20:06.169Z,7.07
2023-01-13T23:22:35.992Z,6.92
2023-01-13T23:25:03.720Z,6.82
2023-01-13T23:27:31.422Z,6.72
2023-01-13T23:29:59.126Z,6.62
2023-01-13T23:32:27.013Z,6.52
2023-01-13T23:34:56.085Z,6.42
2023-01-13T23:37:23.727Z,6.31
2023-01-13T23:39:51.485Z,6.21
2023-01-13T23:42:19.184Z,6.14
2023-01-13T23:44:46.872Z,6.13
2023-01-13T23:47:14.570Z,6.13
2023-01-13T23:49:42.250Z,6.15
2023-01-13T23:52:12.422Z,6.17
2023-01-13T23:54:40.216Z,6.19
2023-01-13T23:57:07.907Z,6.21
2023-01-13T23:59:35.607Z,6.24
